VTBSVDSR

Guest
Details From VTBS - Bangkok Suvarnabhumi Intl
To VDSR - Siem Reap
Flight Number -
Tags decoded
Created
Modified
Stats Distance 184 nm / 340 km
Max Altitude 0 ft / 0 m
Waypoints 5
Social Downloads 4
Likes 0
Share VATSIM

Download

Looking for another format? Having issues loading an existing format? Contact us
Advertisement - Login to hide

Notes

Requested: VTBS COSMO GOMES B2O4 SRE VDSR Unmatched points: B2O4

Route

VTBS COSMO GOMES SRE VDSR

ID Type Via Altitude Latitude Longitude Leg Dist Tot Dist Heading (true) Name
O VTBS APT - 0 ft / 0 m 13.68046˚ 100.74751˚ - 0 nm - Bangkok Suvarnabhumi Intl
COSMO FIX - 0 ft / 0 m 13.64550˚ 101.07183˚ 19 nm 19 nm 96° / 96° -
GOMES FIX - 0 ft / 0 m 13.40171˚ 101.58492˚ 33 nm 52 nm 116° / 116° -
SRE VOR - 0 ft / 0 m 13.41500˚ 103.82167˚ 130 nm 183 nm 89° / 90° SIEM REAP VOR-DME
O VDSR APT - 0 ft / 0 m 13.41067˚ 103.81283˚ 0 nm 183 nm 243° / 243° Siem Reap

Altitude Profile

Advertisement - Login to hide

Weather


0- 5 10 15 20 25 30 35+ Temperature / ° C

Clouds and Precipitation
Forecast for 2017-12-13 18:00 UTC. Updated 2 hours ago

Ground ~20,000 ft ~40,000 ft Winds

VTBS

Details ICAO VTBS (BKK)
Name Bangkok Suvarnabhumi Intl
Region Thailand
Timezone Asia/Bangkok (UTC+7.0)
Stats Elevation 5 ft / 2 m (AMSL)
Location 13.680456° 100.747512°
Runways 2
Magnetic Variation 0.572° W

METAR

VTBS 131700Z 19010KT 9999 FEW020 27/24 Q1011 NOSIG

Decode

TAF

TAF VTBS 131100Z 1312/1418 19008KT 9999 FEW020 BECMG 1320/1322 10005KT 5000 BR FEW014 BECMG 1401/1403 18005KT 8000 NSW FEW025

Decode

Departure Runways

ID Width Length Bearing (true) Bearing (mag) Surface Threshold Offset Overrun Length
01L 200 ft / 61 m 12,194 ft / 3,717 m 14.26° 14.83° Asphalt 0 ft / 0 m 400 ft / 122 m
01R 200 ft / 61 m 13,181 ft / 4,018 m 14.19° 14.76° Asphalt 0 ft / 0 m 400 ft / 122 m
19L 200 ft / 61 m 13,181 ft / 4,018 m 194.19° 194.76° Asphalt 0 ft / 0 m 400 ft / 122 m
19R 200 ft / 61 m 12,194 ft / 3,717 m 194.26° 194.83° Asphalt 0 ft / 0 m 400 ft / 122 m

VDSR

Details ICAO VDSR (REP)
Name Siem Reap
Region Cambodia
Timezone Asia/Phnom_Penh (UTC+7.0)
Stats Elevation 60 ft / 18 m (AMSL)
Location 13.410667° 103.812832°
Runways 1
Magnetic Variation 0.619° W

METAR

VDSR 131700Z 00000KT 9000 NSC 25/24 Q1010

Decode

TAF

Not found

Destination Runways

ID Width Length Bearing (true) Bearing (mag) Surface Threshold Offset Overrun Length
05 148 ft / 45 m 8,384 ft / 2,555 m 47.81° 48.43° Concrete 450 ft / 137 m 0 ft / 0 m
23 148 ft / 45 m 8,384 ft / 2,555 m 227.82° 228.44° Concrete 450 ft / 137 m 0 ft / 0 m

Popular Alternatives